HESH/SSH METAR and TAF weather

Enter ICAO airport designator
Station Type Date Time Source
HESH METAR 2021/07/26 16:00 UTC NOAA

HESH 261600Z 08003KT CAVOK 35/21 Q1005 NOSIG


Station Type Date Time Source
HESH Decoded METAR 2021/07/26 16:00 UTC NOAA

Sharm El Sheikhintl, Egypt (HESH) 27-58N 034-23E
Jul 26, 2021 - 12:00 PM EDT / 2021.07.26 1600 UTC
Wind: from the E (080 degrees) at 3 MPH (3 KT):0
Visibility: greater than 7 mile(s):0
Temperature: 95 F (35 C)
Heat index: 101.3 F (38.5 C):1
Dew Point: 69 F (21 C)
Relative Humidity: 44%
Pressure (altimeter): 29.68 in. Hg (1005 hPa)
ob: HESH 261600Z 08003KT CAVOK 35/21 Q1005 NOSIG
cycle: 16

Station Type Date Time Source
HESH TAF 2021/07/26 18:39 UTC NOAA

TAF TAF HESH 261700Z 2618/2724 36008KT CAVOK

Example: see airport list